sensor_id;sensor_type;location;lat;lon;timestamp;P1;durP1;ratioP1;P2;durP2;ratioP2
6306;SDS011;3186;54.062;9.962;2022-12-07T00:01:08;13.63;;;9.00;;
6306;SDS011;3186;54.062;9.962;2022-12-07T00:03:35;15.47;;;8.70;;
6306;SDS011;3186;54.062;9.962;2022-12-07T00:06:01;12.60;;;8.57;;
6306;SDS011;3186;54.062;9.962;2022-12-07T00:08:28;11.23;;;8.10;;
6306;SDS011;3186;54.062;9.962;2022-12-07T00:10:54;14.10;;;8.97;;
6306;SDS011;3186;54.062;9.962;2022-12-07T00:13:20;12.90;;;8.83;;
6306;SDS011;3186;54.062;9.962;2022-12-07T00:15:46;13.80;;;9.33;;
6306;SDS011;3186;54.062;9.962;2022-12-07T00:18:11;14.20;;;9.37;;
6306;SDS011;3186;54.062;9.962;2022-12-07T00:20:37;12.57;;;8.37;;
6306;SDS011;3186;54.062;9.962;2022-12-07T00:23:03;12.67;;;8.97;;
6306;SDS011;3186;54.062;9.962;2022-12-07T00:25:29;12.10;;;8.93;;
6306;SDS011;3186;54.062;9.962;2022-12-07T00:27:55;15.33;;;9.07;;
6306;SDS011;3186;54.062;9.962;2022-12-07T00:30:22;14.97;;;9.73;;
6306;SDS011;3186;54.062;9.962;2022-12-07T00:32:48;15.73;;;10.70;;
6306;SDS011;3186;54.062;9.962;2022-12-07T00:35:14;12.73;;;9.37;;
6306;SDS011;3186;54.062;9.962;2022-12-07T00:37:40;15.87;;;10.23;;
6306;SDS011;3186;54.062;9.962;2022-12-07T00:40:06;16.57;;;11.17;;
6306;SDS011;3186;54.062;9.962;2022-12-07T00:42:32;19.40;;;12.03;;
6306;SDS011;3186;54.062;9.962;2022-12-07T00:44:58;25.10;;;12.00;;
6306;SDS011;3186;54.062;9.962;2022-12-07T00:47:24;20.73;;;11.83;;
6306;SDS011;3186;54.062;9.962;2022-12-07T00:49:50;18.83;;;11.43;;
6306;SDS011;3186;54.062;9.962;2022-12-07T00:52:15;24.30;;;13.20;;
6306;SDS011;3186;54.062;9.962;2022-12-07T00:54:41;21.17;;;13.63;;
6306;SDS011;3186;54.062;9.962;2022-12-07T00:57:07;17.67;;;12.17;;
6306;SDS011;3186;54.062;9.962;2022-12-07T00:59:33;21.20;;;13.03;;
6306;SDS011;3186;54.062;9.962;2022-12-07T01:01:58;24.37;;;14.07;;
6306;SDS011;3186;54.062;9.962;2022-12-07T01:04:24;22.47;;;12.57;;
6306;SDS011;3186;54.062;9.962;2022-12-07T01:06:50;26.13;;;13.47;;
6306;SDS011;3186;54.062;9.962;2022-12-07T01:09:16;22.23;;;13.33;;
6306;SDS011;3186;54.062;9.962;2022-12-07T01:11:41;20.60;;;12.47;;
6306;SDS011;3186;54.062;9.962;2022-12-07T01:14:08;21.03;;;13.80;;
6306;SDS011;3186;54.062;9.962;2022-12-07T01:16:34;19.80;;;13.00;;
6306;SDS011;3186;54.062;9.962;2022-12-07T01:19:00;19.23;;;12.10;;
6306;SDS011;3186;54.062;9.962;2022-12-07T01:21:30;25.37;;;15.10;;
6306;SDS011;3186;54.062;9.962;2022-12-07T01:24:07;24.03;;;15.03;;
6306;SDS011;3186;54.062;9.962;2022-12-07T01:26:35;25.30;;;14.70;;
6306;SDS011;3186;54.062;9.962;2022-12-07T01:29:01;20.60;;;13.73;;
6306;SDS011;3186;54.062;9.962;2022-12-07T01:31:27;20.17;;;13.10;;
6306;SDS011;3186;54.062;9.962;2022-12-07T01:33:54;20.37;;;12.80;;
6306;SDS011;3186;54.062;9.962;2022-12-07T01:38:58;19.57;;;12.37;;
6306;SDS011;3186;54.062;9.962;2022-12-07T01:41:27;16.60;;;11.37;;
6306;SDS011;3186;54.062;9.962;2022-12-07T01:46:59;19.13;;;10.43;;
6306;SDS011;3186;54.062;9.962;2022-12-07T01:49:35;16.93;;;10.50;;
6306;SDS011;3186;54.062;9.962;2022-12-07T01:52:22;15.97;;;10.00;;
6306;SDS011;3186;54.062;9.962;2022-12-07T01:54:58;14.37;;;8.47;;
6306;SDS011;3186;54.062;9.962;2022-12-07T01:57:28;10.97;;;8.10;;
6306;SDS011;3186;54.062;9.962;2022-12-07T01:59:55;10.80;;;7.27;;
6306;SDS011;3186;54.062;9.962;2022-12-07T02:02:26;12.53;;;7.10;;
6306;SDS011;3186;54.062;9.962;2022-12-07T02:04:57;10.10;;;6.83;;
6306;SDS011;3186;54.062;9.962;2022-12-07T02:07:25;11.20;;;7.20;;
6306;SDS011;3186;54.062;9.962;2022-12-07T02:09:51;10.47;;;7.37;;
6306;SDS011;3186;54.062;9.962;2022-12-07T02:12:18;11.00;;;6.60;;
6306;SDS011;3186;54.062;9.962;2022-12-07T02:14:45;11.20;;;6.63;;
6306;SDS011;3186;54.062;9.962;2022-12-07T02:17:13;8.50;;;5.57;;
6306;SDS011;3186;54.062;9.962;2022-12-07T02:20:02;9.70;;;5.73;;
6306;SDS011;3186;54.062;9.962;2022-12-07T02:28:19;6.23;;;4.37;;
6306;SDS011;3186;54.062;9.962;2022-12-07T02:31:14;5.30;;;3.70;;
6306;SDS011;3186;54.062;9.962;2022-12-07T02:33:56;5.27;;;3.33;;
6306;SDS011;3186;54.062;9.962;2022-12-07T02:36:35;6.53;;;3.40;;
6306;SDS011;3186;54.062;9.962;2022-12-07T02:39:09;5.03;;;2.57;;
6306;SDS011;3186;54.062;9.962;2022-12-07T02:41:44;7.43;;;2.33;;
6306;SDS011;3186;54.062;9.962;2022-12-07T02:44:22;5.00;;;2.63;;
6306;SDS011;3186;54.062;9.962;2022-12-07T02:46:54;4.73;;;2.40;;
6306;SDS011;3186;54.062;9.962;2022-12-07T02:49:25;4.80;;;2.33;;
6306;SDS011;3186;54.062;9.962;2022-12-07T02:51:52;4.20;;;2.20;;
6306;SDS011;3186;54.062;9.962;2022-12-07T02:54:19;3.93;;;2.13;;
6306;SDS011;3186;54.062;9.962;2022-12-07T02:57:21;6.93;;;2.93;;
6306;SDS011;3186;54.062;9.962;2022-12-07T03:02:50;6.03;;;2.53;;
6306;SDS011;3186;54.062;9.962;2022-12-07T03:13:28;5.20;;;3.20;;
6306;SDS011;3186;54.062;9.962;2022-12-07T03:18:35;7.13;;;3.60;;
6306;SDS011;3186;54.062;9.962;2022-12-07T03:21:10;7.00;;;3.97;;
6306;SDS011;3186;54.062;9.962;2022-12-07T03:23:40;6.67;;;4.13;;
6306;SDS011;3186;54.062;9.962;2022-12-07T03:26:09;5.67;;;4.10;;
6306;SDS011;3186;54.062;9.962;2022-12-07T03:28:39;5.60;;;3.93;;
6306;SDS011;3186;54.062;9.962;2022-12-07T03:31:22;5.90;;;3.97;;
6306;SDS011;3186;54.062;9.962;2022-12-07T03:36:40;7.97;;;4.73;;
6306;SDS011;3186;54.062;9.962;2022-12-07T03:41:56;5.53;;;4.20;;
6306;SDS011;3186;54.062;9.962;2022-12-07T03:44:25;8.43;;;5.07;;
6306;SDS011;3186;54.062;9.962;2022-12-07T03:57:33;7.63;;;4.83;;
6306;SDS011;3186;54.062;9.962;2022-12-07T04:00:00;9.33;;;5.20;;
6306;SDS011;3186;54.062;9.962;2022-12-07T04:02:37;8.23;;;4.63;;
6306;SDS011;3186;54.062;9.962;2022-12-07T04:05:03;6.27;;;5.07;;
6306;SDS011;3186;54.062;9.962;2022-12-07T04:07:30;7.63;;;5.30;;
6306;SDS011;3186;54.062;9.962;2022-12-07T04:09:56;7.60;;;5.03;;
6306;SDS011;3186;54.062;9.962;2022-12-07T04:12:22;5.60;;;4.40;;
6306;SDS011;3186;54.062;9.962;2022-12-07T04:14:48;7.70;;;5.00;;
6306;SDS011;3186;54.062;9.962;2022-12-07T04:17:14;7.83;;;4.57;;
6306;SDS011;3186;54.062;9.962;2022-12-07T04:19:40;7.87;;;4.70;;
6306;SDS011;3186;54.062;9.962;2022-12-07T04:22:06;6.87;;;4.47;;
6306;SDS011;3186;54.062;9.962;2022-12-07T04:24:32;5.43;;;4.10;;
6306;SDS011;3186;54.062;9.962;2022-12-07T04:26:59;7.10;;;5.03;;
6306;SDS011;3186;54.062;9.962;2022-12-07T04:29:25;7.27;;;4.33;;
6306;SDS011;3186;54.062;9.962;2022-12-07T04:31:50;6.97;;;4.40;;
6306;SDS011;3186;54.062;9.962;2022-12-07T04:34:17;5.93;;;4.13;;
6306;SDS011;3186;54.062;9.962;2022-12-07T04:36:44;6.50;;;4.50;;
6306;SDS011;3186;54.062;9.962;2022-12-07T04:39:30;5.80;;;4.10;;
6306;SDS011;3186;54.062;9.962;2022-12-07T04:41:57;6.70;;;4.30;;
6306;SDS011;3186;54.062;9.962;2022-12-07T04:44:24;9.37;;;4.70;;
6306;SDS011;3186;54.062;9.962;2022-12-07T04:46:51;7.30;;;4.50;;
6306;SDS011;3186;54.062;9.962;2022-12-07T04:49:17;6.03;;;3.90;;
6306;SDS011;3186;54.062;9.962;2022-12-07T04:51:44;7.33;;;4.10;;
6306;SDS011;3186;54.062;9.962;2022-12-07T04:54:11;8.10;;;4.17;;
6306;SDS011;3186;54.062;9.962;2022-12-07T04:56:38;5.77;;;4.37;;
6306;SDS011;3186;54.062;9.962;2022-12-07T04:59:05;5.57;;;3.43;;
6306;SDS011;3186;54.062;9.962;2022-12-07T05:01:31;5.70;;;4.20;;
6306;SDS011;3186;54.062;9.962;2022-12-07T05:03:57;6.43;;;4.53;;
6306;SDS011;3186;54.062;9.962;2022-12-07T05:06:23;6.57;;;4.23;;
6306;SDS011;3186;54.062;9.962;2022-12-07T05:08:49;7.43;;;3.97;;
6306;SDS011;3186;54.062;9.962;2022-12-07T05:11:15;6.33;;;4.10;;
6306;SDS011;3186;54.062;9.962;2022-12-07T05:14:00;9.03;;;4.57;;
6306;SDS011;3186;54.062;9.962;2022-12-07T05:16:27;6.53;;;4.20;;
6306;SDS011;3186;54.062;9.962;2022-12-07T05:18:53;7.27;;;3.77;;
6306;SDS011;3186;54.062;9.962;2022-12-07T05:21:19;6.60;;;4.53;;
6306;SDS011;3186;54.062;9.962;2022-12-07T05:23:45;7.30;;;4.30;;
6306;SDS011;3186;54.062;9.962;2022-12-07T05:26:10;5.33;;;3.80;;
6306;SDS011;3186;54.062;9.962;2022-12-07T05:28:36;6.53;;;4.67;;
6306;SDS011;3186;54.062;9.962;2022-12-07T05:31:02;6.40;;;4.30;;
6306;SDS011;3186;54.062;9.962;2022-12-07T05:33:28;6.97;;;4.43;;
6306;SDS011;3186;54.062;9.962;2022-12-07T05:35:54;8.17;;;4.80;;
6306;SDS011;3186;54.062;9.962;2022-12-07T05:38:20;7.60;;;4.20;;
6306;SDS011;3186;54.062;9.962;2022-12-07T05:40:46;9.83;;;5.77;;
6306;SDS011;3186;54.062;9.962;2022-12-07T05:43:12;17.03;;;7.07;;
6306;SDS011;3186;54.062;9.962;2022-12-07T05:45:37;13.57;;;6.70;;
6306;SDS011;3186;54.062;9.962;2022-12-07T05:48:03;10.97;;;6.53;;
6306;SDS011;3186;54.062;9.962;2022-12-07T05:50:29;11.47;;;6.40;;
6306;SDS011;3186;54.062;9.962;2022-12-07T05:53:01;13.33;;;5.83;;
6306;SDS011;3186;54.062;9.962;2022-12-07T05:55:27;9.67;;;5.23;;
6306;SDS011;3186;54.062;9.962;2022-12-07T05:57:53;7.90;;;4.93;;
6306;SDS011;3186;54.062;9.962;2022-12-07T06:00:37;8.00;;;4.90;;
6306;SDS011;3186;54.062;9.962;2022-12-07T06:03:03;8.87;;;4.87;;
6306;SDS011;3186;54.062;9.962;2022-12-07T06:05:28;9.07;;;5.07;;
6306;SDS011;3186;54.062;9.962;2022-12-07T06:07:54;6.03;;;3.90;;
6306;SDS011;3186;54.062;9.962;2022-12-07T06:10:20;7.63;;;4.47;;
6306;SDS011;3186;54.062;9.962;2022-12-07T06:12:46;6.23;;;3.83;;
6306;SDS011;3186;54.062;9.962;2022-12-07T06:15:12;8.33;;;4.60;;
6306;SDS011;3186;54.062;9.962;2022-12-07T06:17:38;8.87;;;4.53;;
6306;SDS011;3186;54.062;9.962;2022-12-07T06:20:05;11.57;;;5.33;;
6306;SDS011;3186;54.062;9.962;2022-12-07T06:22:31;8.77;;;4.70;;
6306;SDS011;3186;54.062;9.962;2022-12-07T06:24:57;7.97;;;5.00;;
6306;SDS011;3186;54.062;9.962;2022-12-07T06:27:23;8.93;;;4.50;;
6306;SDS011;3186;54.062;9.962;2022-12-07T06:29:48;9.43;;;4.47;;
6306;SDS011;3186;54.062;9.962;2022-12-07T06:32:14;8.17;;;4.23;;
6306;SDS011;3186;54.062;9.962;2022-12-07T06:34:40;7.53;;;4.93;;
6306;SDS011;3186;54.062;9.962;2022-12-07T06:37:06;7.23;;;4.87;;
6306;SDS011;3186;54.062;9.962;2022-12-07T06:39:32;7.67;;;4.53;;
6306;SDS011;3186;54.062;9.962;2022-12-07T06:42:01;9.60;;;4.67;;
6306;SDS011;3186;54.062;9.962;2022-12-07T06:44:27;7.20;;;4.40;;
6306;SDS011;3186;54.062;9.962;2022-12-07T06:46:53;6.43;;;4.43;;
6306;SDS011;3186;54.062;9.962;2022-12-07T06:49:19;6.80;;;4.17;;
6306;SDS011;3186;54.062;9.962;2022-12-07T06:51:44;6.93;;;4.67;;
6306;SDS011;3186;54.062;9.962;2022-12-07T06:54:11;10.10;;;4.50;;
6306;SDS011;3186;54.062;9.962;2022-12-07T06:56:37;7.50;;;4.07;;
6306;SDS011;3186;54.062;9.962;2022-12-07T06:59:04;6.73;;;4.33;;
6306;SDS011;3186;54.062;9.962;2022-12-07T07:01:31;9.47;;;4.50;;
6306;SDS011;3186;54.062;9.962;2022-12-07T07:03:58;6.60;;;4.47;;
6306;SDS011;3186;54.062;9.962;2022-12-07T07:06:24;7.97;;;4.10;;
6306;SDS011;3186;54.062;9.962;2022-12-07T07:08:50;6.87;;;4.10;;
6306;SDS011;3186;54.062;9.962;2022-12-07T07:11:16;5.63;;;3.97;;
6306;SDS011;3186;54.062;9.962;2022-12-07T07:13:42;8.30;;;4.47;;
6306;SDS011;3186;54.062;9.962;2022-12-07T07:16:09;6.60;;;4.00;;
6306;SDS011;3186;54.062;9.962;2022-12-07T07:18:35;6.77;;;4.17;;
6306;SDS011;3186;54.062;9.962;2022-12-07T07:21:01;7.70;;;4.37;;
6306;SDS011;3186;54.062;9.962;2022-12-07T07:23:27;6.03;;;3.90;;
6306;SDS011;3186;54.062;9.962;2022-12-07T07:25:53;6.47;;;3.97;;
6306;SDS011;3186;54.062;9.962;2022-12-07T07:28:19;6.93;;;4.13;;
6306;SDS011;3186;54.062;9.962;2022-12-07T07:30:45;5.93;;;4.13;;
6306;SDS011;3186;54.062;9.962;2022-12-07T07:33:11;6.07;;;3.97;;
6306;SDS011;3186;54.062;9.962;2022-12-07T07:35:38;6.00;;;3.90;;
6306;SDS011;3186;54.062;9.962;2022-12-07T07:38:04;8.27;;;4.30;;
6306;SDS011;3186;54.062;9.962;2022-12-07T07:40:31;7.23;;;4.40;;
6306;SDS011;3186;54.062;9.962;2022-12-07T07:42:57;7.10;;;4.10;;
6306;SDS011;3186;54.062;9.962;2022-12-07T07:45:24;6.83;;;4.10;;
6306;SDS011;3186;54.062;9.962;2022-12-07T07:47:51;8.70;;;4.30;;
6306;SDS011;3186;54.062;9.962;2022-12-07T07:50:17;7.87;;;5.33;;
6306;SDS011;3186;54.062;9.962;2022-12-07T07:52:44;8.70;;;4.53;;
6306;SDS011;3186;54.062;9.962;2022-12-07T07:55:10;8.17;;;4.87;;
6306;SDS011;3186;54.062;9.962;2022-12-07T07:57:36;7.37;;;4.20;;
6306;SDS011;3186;54.062;9.962;2022-12-07T08:00:04;9.13;;;4.23;;
6306;SDS011;3186;54.062;9.962;2022-12-07T08:02:37;11.13;;;4.63;;
6306;SDS011;3186;54.062;9.962;2022-12-07T08:05:03;7.83;;;4.93;;
6306;SDS011;3186;54.062;9.962;2022-12-07T08:07:30;7.33;;;4.20;;
6306;SDS011;3186;54.062;9.962;2022-12-07T08:09:56;7.97;;;4.10;;
6306;SDS011;3186;54.062;9.962;2022-12-07T08:12:21;7.17;;;3.93;;
6306;SDS011;3186;54.062;9.962;2022-12-07T08:14:47;9.33;;;4.23;;
6306;SDS011;3186;54.062;9.962;2022-12-07T08:17:13;6.47;;;4.43;;
6306;SDS011;3186;54.062;9.962;2022-12-07T08:19:40;8.00;;;4.07;;
6306;SDS011;3186;54.062;9.962;2022-12-07T08:22:06;7.73;;;4.03;;
6306;SDS011;3186;54.062;9.962;2022-12-07T08:24:35;6.07;;;3.77;;
6306;SDS011;3186;54.062;9.962;2022-12-07T08:27:01;7.50;;;4.03;;
6306;SDS011;3186;54.062;9.962;2022-12-07T08:29:28;7.80;;;4.07;;
6306;SDS011;3186;54.062;9.962;2022-12-07T08:31:54;11.23;;;4.00;;
6306;SDS011;3186;54.062;9.962;2022-12-07T08:34:20;7.27;;;3.90;;
6306;SDS011;3186;54.062;9.962;2022-12-07T08:36:45;7.80;;;3.90;;
6306;SDS011;3186;54.062;9.962;2022-12-07T08:39:11;6.97;;;3.57;;
6306;SDS011;3186;54.062;9.962;2022-12-07T08:41:37;7.03;;;4.30;;
6306;SDS011;3186;54.062;9.962;2022-12-07T08:44:03;7.90;;;3.90;;
6306;SDS011;3186;54.062;9.962;2022-12-07T08:49:07;9.07;;;3.97;;
6306;SDS011;3186;54.062;9.962;2022-12-07T08:51:45;5.27;;;3.47;;
6306;SDS011;3186;54.062;9.962;2022-12-07T08:54:13;8.40;;;3.60;;
6306;SDS011;3186;54.062;9.962;2022-12-07T08:56:41;5.97;;;3.30;;
6306;SDS011;3186;54.062;9.962;2022-12-07T08:59:09;8.00;;;3.43;;
6306;SDS011;3186;54.062;9.962;2022-12-07T09:01:36;9.70;;;3.53;;
6306;SDS011;3186;54.062;9.962;2022-12-07T09:04:02;7.43;;;3.40;;
6306;SDS011;3186;54.062;9.962;2022-12-07T09:06:28;9.53;;;3.47;;
6306;SDS011;3186;54.062;9.962;2022-12-07T09:08:55;5.13;;;2.90;;
6306;SDS011;3186;54.062;9.962;2022-12-07T09:11:24;8.90;;;3.40;;
6306;SDS011;3186;54.062;9.962;2022-12-07T09:13:50;7.57;;;3.23;;
6306;SDS011;3186;54.062;9.962;2022-12-07T09:16:16;6.10;;;3.27;;
6306;SDS011;3186;54.062;9.962;2022-12-07T09:18:41;8.80;;;4.23;;
6306;SDS011;3186;54.062;9.962;2022-12-07T09:21:07;10.37;;;3.57;;
6306;SDS011;3186;54.062;9.962;2022-12-07T09:23:33;7.10;;;3.27;;
6306;SDS011;3186;54.062;9.962;2022-12-07T09:26:03;13.47;;;4.03;;
6306;SDS011;3186;54.062;9.962;2022-12-07T09:28:30;9.73;;;3.60;;
6306;SDS011;3186;54.062;9.962;2022-12-07T09:30:56;28.57;;;5.93;;
6306;SDS011;3186;54.062;9.962;2022-12-07T09:33:22;18.83;;;4.73;;
6306;SDS011;3186;54.062;9.962;2022-12-07T09:35:48;15.33;;;4.67;;
6306;SDS011;3186;54.062;9.962;2022-12-07T09:38:15;20.20;;;4.07;;
6306;SDS011;3186;54.062;9.962;2022-12-07T09:40:42;12.93;;;4.00;;
6306;SDS011;3186;54.062;9.962;2022-12-07T09:43:19;13.17;;;4.07;;
6306;SDS011;3186;54.062;9.962;2022-12-07T09:45:53;8.60;;;3.60;;
6306;SDS011;3186;54.062;9.962;2022-12-07T09:48:22;15.87;;;3.10;;
6306;SDS011;3186;54.062;9.962;2022-12-07T09:50:55;7.50;;;2.90;;
6306;SDS011;3186;54.062;9.962;2022-12-07T09:53:27;12.30;;;3.30;;
6306;SDS011;3186;54.062;9.962;2022-12-07T09:55:54;11.83;;;2.70;;
6306;SDS011;3186;54.062;9.962;2022-12-07T09:58:22;9.13;;;3.63;;
6306;SDS011;3186;54.062;9.962;2022-12-07T10:00:55;12.73;;;3.13;;
6306;SDS011;3186;54.062;9.962;2022-12-07T10:03:26;7.27;;;2.67;;
6306;SDS011;3186;54.062;9.962;2022-12-07T10:05:53;9.40;;;2.53;;
6306;SDS011;3186;54.062;9.962;2022-12-07T10:08:20;8.47;;;2.70;;
6306;SDS011;3186;54.062;9.962;2022-12-07T10:10:49;9.83;;;2.87;;
6306;SDS011;3186;54.062;9.962;2022-12-07T10:13:34;10.70;;;2.80;;
6306;SDS011;3186;54.062;9.962;2022-12-07T10:16:00;9.80;;;2.40;;
6306;SDS011;3186;54.062;9.962;2022-12-07T10:23:28;10.10;;;2.70;;
6306;SDS011;3186;54.062;9.962;2022-12-07T10:25:55;6.70;;;2.50;;
6306;SDS011;3186;54.062;9.962;2022-12-07T10:28:21;10.80;;;2.63;;
6306;SDS011;3186;54.062;9.962;2022-12-07T10:30:52;6.80;;;2.33;;
6306;SDS011;3186;54.062;9.962;2022-12-07T10:35:57;24.17;;;3.27;;
6306;SDS011;3186;54.062;9.962;2022-12-07T10:38:24;8.00;;;2.37;;
6306;SDS011;3186;54.062;9.962;2022-12-07T10:41:05;12.73;;;2.23;;
6306;SDS011;3186;54.062;9.962;2022-12-07T10:43:31;10.47;;;2.30;;
6306;SDS011;3186;54.062;9.962;2022-12-07T10:46:19;11.07;;;2.20;;
6306;SDS011;3186;54.062;9.962;2022-12-07T10:54:12;9.77;;;2.37;;
6306;SDS011;3186;54.062;9.962;2022-12-07T11:05:19;7.33;;;2.17;;
6306;SDS011;3186;54.062;9.962;2022-12-07T11:21:05;6.30;;;1.60;;
6306;SDS011;3186;54.062;9.962;2022-12-07T11:37:35;9.30;;;1.50;;
6306;SDS011;3186;54.062;9.962;2022-12-07T11:40:13;5.23;;;1.37;;
6306;SDS011;3186;54.062;9.962;2022-12-07T11:43:31;4.20;;;1.03;;
6306;SDS011;3186;54.062;9.962;2022-12-07T11:45:37;3.50;;;0.93;;
6306;SDS011;3186;54.062;9.962;2022-12-07T11:51:27;3.53;;;0.90;;
6306;SDS011;3186;54.062;9.962;2022-12-07T11:53:59;4.00;;;1.47;;
6306;SDS011;3186;54.062;9.962;2022-12-07T11:56:30;4.30;;;1.23;;
6306;SDS011;3186;54.062;9.962;2022-12-07T12:04:51;6.77;;;1.30;;
6306;SDS011;3186;54.062;9.962;2022-12-07T12:07:05;3.47;;;0.90;;
6306;SDS011;3186;54.062;9.962;2022-12-07T12:09:41;2.47;;;0.90;;
6306;SDS011;3186;54.062;9.962;2022-12-07T12:20:25;5.47;;;1.20;;
6306;SDS011;3186;54.062;9.962;2022-12-07T12:33:50;7.37;;;1.30;;
6306;SDS011;3186;54.062;9.962;2022-12-07T12:36:23;3.33;;;1.17;;
6306;SDS011;3186;54.062;9.962;2022-12-07T12:51:50;3.07;;;0.90;;
6306;SDS011;3186;54.062;9.962;2022-12-07T12:54:23;3.20;;;0.87;;
6306;SDS011;3186;54.062;9.962;2022-12-07T12:56:52;4.13;;;1.13;;
6306;SDS011;3186;54.062;9.962;2022-12-07T13:01:50;3.10;;;1.00;;
6306;SDS011;3186;54.062;9.962;2022-12-07T13:06:54;4.60;;;1.03;;
6306;SDS011;3186;54.062;9.962;2022-12-07T13:09:24;3.17;;;1.10;;
6306;SDS011;3186;54.062;9.962;2022-12-07T13:11:58;4.40;;;0.80;;
6306;SDS011;3186;54.062;9.962;2022-12-07T13:17:05;3.20;;;1.00;;
6306;SDS011;3186;54.062;9.962;2022-12-07T13:24:58;2.43;;;1.10;;
6306;SDS011;3186;54.062;9.962;2022-12-07T13:27:47;5.63;;;1.30;;
6306;SDS011;3186;54.062;9.962;2022-12-07T13:30:22;3.13;;;1.47;;
6306;SDS011;3186;54.062;9.962;2022-12-07T13:32:56;3.30;;;1.07;;
6306;SDS011;3186;54.062;9.962;2022-12-07T13:35:30;7.33;;;1.07;;
6306;SDS011;3186;54.062;9.962;2022-12-07T13:37:57;7.47;;;1.10;;
6306;SDS011;3186;54.062;9.962;2022-12-07T13:40:23;3.63;;;1.20;;
6306;SDS011;3186;54.062;9.962;2022-12-07T13:42:56;1.70;;;0.90;;
6306;SDS011;3186;54.062;9.962;2022-12-07T13:45:28;5.83;;;1.03;;
6306;SDS011;3186;54.062;9.962;2022-12-07T13:48:14;5.27;;;1.10;;
6306;SDS011;3186;54.062;9.962;2022-12-07T13:50:41;3.00;;;1.10;;
6306;SDS011;3186;54.062;9.962;2022-12-07T13:53:11;2.93;;;1.10;;
6306;SDS011;3186;54.062;9.962;2022-12-07T13:55:43;4.20;;;0.87;;
6306;SDS011;3186;54.062;9.962;2022-12-07T13:58:11;3.27;;;1.07;;
6306;SDS011;3186;54.062;9.962;2022-12-07T14:00:37;7.13;;;1.00;;
6306;SDS011;3186;54.062;9.962;2022-12-07T14:05:36;1.90;;;1.10;;
6306;SDS011;3186;54.062;9.962;2022-12-07T14:08:04;3.83;;;1.00;;
6306;SDS011;3186;54.062;9.962;2022-12-07T14:15:51;1.63;;;0.80;;
6306;SDS011;3186;54.062;9.962;2022-12-07T14:18:24;2.13;;;0.80;;
6306;SDS011;3186;54.062;9.962;2022-12-07T14:23:37;0.90;;;0.63;;
6306;SDS011;3186;54.062;9.962;2022-12-07T14:26:08;1.60;;;0.70;;
6306;SDS011;3186;54.062;9.962;2022-12-07T14:28:41;2.87;;;0.90;;
6306;SDS011;3186;54.062;9.962;2022-12-07T14:31:18;5.10;;;1.00;;
6306;SDS011;3186;54.062;9.962;2022-12-07T14:33:49;9.63;;;1.13;;
6306;SDS011;3186;54.062;9.962;2022-12-07T14:36:15;4.13;;;0.83;;
6306;SDS011;3186;54.062;9.962;2022-12-07T14:38:41;3.63;;;1.00;;
6306;SDS011;3186;54.062;9.962;2022-12-07T14:41:10;2.80;;;1.00;;
6306;SDS011;3186;54.062;9.962;2022-12-07T14:43:59;2.37;;;1.20;;
6306;SDS011;3186;54.062;9.962;2022-12-07T14:46:25;2.00;;;1.07;;
6306;SDS011;3186;54.062;9.962;2022-12-07T14:48:51;4.20;;;1.17;;
6306;SDS011;3186;54.062;9.962;2022-12-07T14:51:16;2.80;;;0.90;;
6306;SDS011;3186;54.062;9.962;2022-12-07T14:53:44;7.03;;;1.83;;
6306;SDS011;3186;54.062;9.962;2022-12-07T14:56:13;2.07;;;1.07;;
6306;SDS011;3186;54.062;9.962;2022-12-07T14:58:39;4.10;;;1.30;;
6306;SDS011;3186;54.062;9.962;2022-12-07T15:01:05;4.60;;;1.80;;
6306;SDS011;3186;54.062;9.962;2022-12-07T15:03:31;3.97;;;1.83;;
6306;SDS011;3186;54.062;9.962;2022-12-07T15:05:57;4.63;;;1.60;;
6306;SDS011;3186;54.062;9.962;2022-12-07T15:08:23;4.37;;;2.03;;
6306;SDS011;3186;54.062;9.962;2022-12-07T15:10:49;4.00;;;1.73;;
6306;SDS011;3186;54.062;9.962;2022-12-07T15:13:14;5.17;;;1.83;;
6306;SDS011;3186;54.062;9.962;2022-12-07T15:15:59;6.47;;;2.07;;
6306;SDS011;3186;54.062;9.962;2022-12-07T15:18:25;2.60;;;1.70;;
6306;SDS011;3186;54.062;9.962;2022-12-07T15:20:51;3.27;;;1.90;;
6306;SDS011;3186;54.062;9.962;2022-12-07T15:23:16;3.73;;;1.70;;
6306;SDS011;3186;54.062;9.962;2022-12-07T15:25:43;4.03;;;1.93;;
6306;SDS011;3186;54.062;9.962;2022-12-07T15:28:10;3.70;;;1.60;;
6306;SDS011;3186;54.062;9.962;2022-12-07T15:30:37;4.67;;;1.87;;
6306;SDS011;3186;54.062;9.962;2022-12-07T15:33:03;4.90;;;1.97;;
6306;SDS011;3186;54.062;9.962;2022-12-07T15:35:29;3.10;;;2.30;;
6306;SDS011;3186;54.062;9.962;2022-12-07T15:37:55;4.93;;;2.37;;
6306;SDS011;3186;54.062;9.962;2022-12-07T15:40:20;5.17;;;2.77;;
6306;SDS011;3186;54.062;9.962;2022-12-07T15:42:46;3.70;;;2.80;;
6306;SDS011;3186;54.062;9.962;2022-12-07T15:45:12;5.03;;;2.40;;
6306;SDS011;3186;54.062;9.962;2022-12-07T15:47:39;5.33;;;2.57;;
6306;SDS011;3186;54.062;9.962;2022-12-07T15:50:08;6.70;;;2.83;;
6306;SDS011;3186;54.062;9.962;2022-12-07T15:52:36;5.77;;;3.27;;
6306;SDS011;3186;54.062;9.962;2022-12-07T15:55:04;5.43;;;3.43;;
6306;SDS011;3186;54.062;9.962;2022-12-07T15:57:31;6.43;;;3.70;;
6306;SDS011;3186;54.062;9.962;2022-12-07T15:59:59;5.57;;;3.40;;
6306;SDS011;3186;54.062;9.962;2022-12-07T16:02:25;8.10;;;3.53;;
6306;SDS011;3186;54.062;9.962;2022-12-07T16:04:51;7.03;;;3.67;;
6306;SDS011;3186;54.062;9.962;2022-12-07T16:07:18;6.23;;;3.60;;
6306;SDS011;3186;54.062;9.962;2022-12-07T16:09:45;5.80;;;3.47;;
6306;SDS011;3186;54.062;9.962;2022-12-07T16:12:11;6.50;;;3.50;;
6306;SDS011;3186;54.062;9.962;2022-12-07T16:14:38;5.67;;;3.60;;
6306;SDS011;3186;54.062;9.962;2022-12-07T16:17:05;6.07;;;3.20;;
6306;SDS011;3186;54.062;9.962;2022-12-07T16:19:32;6.63;;;3.53;;
6306;SDS011;3186;54.062;9.962;2022-12-07T16:21:59;5.37;;;3.57;;
6306;SDS011;3186;54.062;9.962;2022-12-07T16:24:25;5.80;;;3.90;;
6306;SDS011;3186;54.062;9.962;2022-12-07T16:26:51;5.07;;;3.40;;
6306;SDS011;3186;54.062;9.962;2022-12-07T16:29:17;7.37;;;3.30;;
6306;SDS011;3186;54.062;9.962;2022-12-07T16:31:44;7.17;;;3.10;;
6306;SDS011;3186;54.062;9.962;2022-12-07T16:34:10;6.00;;;3.90;;
6306;SDS011;3186;54.062;9.962;2022-12-07T16:36:36;6.43;;;2.90;;
6306;SDS011;3186;54.062;9.962;2022-12-07T16:39:02;3.47;;;2.70;;
6306;SDS011;3186;54.062;9.962;2022-12-07T16:41:29;3.40;;;2.70;;
6306;SDS011;3186;54.062;9.962;2022-12-07T16:43:55;6.93;;;3.40;;
6306;SDS011;3186;54.062;9.962;2022-12-07T16:46:21;4.33;;;3.20;;
6306;SDS011;3186;54.062;9.962;2022-12-07T16:48:46;4.60;;;3.40;;
6306;SDS011;3186;54.062;9.962;2022-12-07T16:51:13;6.30;;;3.10;;
6306;SDS011;3186;54.062;9.962;2022-12-07T16:53:40;5.53;;;3.57;;
6306;SDS011;3186;54.062;9.962;2022-12-07T16:56:11;8.70;;;4.03;;
6306;SDS011;3186;54.062;9.962;2022-12-07T16:58:38;6.57;;;4.77;;
6306;SDS011;3186;54.062;9.962;2022-12-07T17:01:14;7.73;;;5.00;;
6306;SDS011;3186;54.062;9.962;2022-12-07T17:03:41;6.77;;;4.97;;
6306;SDS011;3186;54.062;9.962;2022-12-07T17:06:18;7.60;;;4.50;;
6306;SDS011;3186;54.062;9.962;2022-12-07T17:08:46;6.17;;;4.53;;
6306;SDS011;3186;54.062;9.962;2022-12-07T17:11:14;6.10;;;4.40;;
6306;SDS011;3186;54.062;9.962;2022-12-07T17:13:51;8.67;;;4.53;;
6306;SDS011;3186;54.062;9.962;2022-12-07T17:16:35;7.90;;;4.53;;
6306;SDS011;3186;54.062;9.962;2022-12-07T17:19:09;9.80;;;5.23;;
6306;SDS011;3186;54.062;9.962;2022-12-07T17:21:37;9.10;;;4.43;;
6306;SDS011;3186;54.062;9.962;2022-12-07T17:24:04;6.83;;;4.33;;
6306;SDS011;3186;54.062;9.962;2022-12-07T17:26:31;7.80;;;4.43;;
6306;SDS011;3186;54.062;9.962;2022-12-07T17:28:58;5.57;;;4.30;;
6306;SDS011;3186;54.062;9.962;2022-12-07T17:31:24;6.57;;;4.13;;
6306;SDS011;3186;54.062;9.962;2022-12-07T17:33:50;5.20;;;3.73;;
6306;SDS011;3186;54.062;9.962;2022-12-07T17:36:20;7.40;;;4.00;;
6306;SDS011;3186;54.062;9.962;2022-12-07T17:38:48;5.33;;;3.20;;
6306;SDS011;3186;54.062;9.962;2022-12-07T17:41:16;7.60;;;3.73;;
6306;SDS011;3186;54.062;9.962;2022-12-07T17:44:06;5.67;;;3.30;;
6306;SDS011;3186;54.062;9.962;2022-12-07T17:46:34;7.00;;;3.90;;
6306;SDS011;3186;54.062;9.962;2022-12-07T17:49:00;4.37;;;3.07;;
6306;SDS011;3186;54.062;9.962;2022-12-07T17:51:27;5.67;;;3.40;;
6306;SDS011;3186;54.062;9.962;2022-12-07T17:54:11;5.33;;;3.13;;
6306;SDS011;3186;54.062;9.962;2022-12-07T17:56:37;3.03;;;2.60;;